sensor_id;sensor_type;location;lat;lon;timestamp;temperature;humidity
22436;DHT22;11385;50.822;4.324;2023-10-31T00:01:27;11.50;99.90
22436;DHT22;11385;50.822;4.324;2023-10-31T00:03:53;11.60;99.90
22436;DHT22;11385;50.822;4.324;2023-10-31T00:06:20;11.60;99.90
22436;DHT22;11385;50.822;4.324;2023-10-31T00:08:46;11.60;99.90
22436;DHT22;11385;50.822;4.324;2023-10-31T00:11:13;11.50;99.90
22436;DHT22;11385;50.822;4.324;2023-10-31T00:13:40;11.70;99.90
22436;DHT22;11385;50.822;4.324;2023-10-31T00:16:07;11.70;99.90
22436;DHT22;11385;50.822;4.324;2023-10-31T00:18:33;11.80;99.90
22436;DHT22;11385;50.822;4.324;2023-10-31T00:21:00;11.80;99.90
22436;DHT22;11385;50.822;4.324;2023-10-31T00:23:27;11.80;99.90
22436;DHT22;11385;50.822;4.324;2023-10-31T00:25:53;11.80;99.90
22436;DHT22;11385;50.822;4.324;2023-10-31T00:28:20;11.70;99.90
22436;DHT22;11385;50.822;4.324;2023-10-31T00:30:46;11.80;99.90
22436;DHT22;11385;50.822;4.324;2023-10-31T00:33:13;11.70;99.90
22436;DHT22;11385;50.822;4.324;2023-10-31T00:35:39;11.70;99.90
22436;DHT22;11385;50.822;4.324;2023-10-31T00:38:06;11.70;99.90
22436;DHT22;11385;50.822;4.324;2023-10-31T00:40:33;11.70;99.90
22436;DHT22;11385;50.822;4.324;2023-10-31T00:43:00;11.70;99.90
22436;DHT22;11385;50.822;4.324;2023-10-31T00:45:27;11.70;99.90
22436;DHT22;11385;50.822;4.324;2023-10-31T00:47:54;11.70;99.90
22436;DHT22;11385;50.822;4.324;2023-10-31T00:50:20;11.60;99.90
22436;DHT22;11385;50.822;4.324;2023-10-31T00:52:47;11.60;99.90
22436;DHT22;11385;50.822;4.324;2023-10-31T00:55:14;11.60;99.90
22436;DHT22;11385;50.822;4.324;2023-10-31T00:57:40;11.60;99.90
22436;DHT22;11385;50.822;4.324;2023-10-31T01:00:07;11.50;99.90
22436;DHT22;11385;50.822;4.324;2023-10-31T01:02:36;11.50;99.90
22436;DHT22;11385;50.822;4.324;2023-10-31T01:05:03;11.60;99.90
22436;DHT22;11385;50.822;4.324;2023-10-31T01:07:29;11.60;99.90
22436;DHT22;11385;50.822;4.324;2023-10-31T01:09:56;11.50;99.90
22436;DHT22;11385;50.822;4.324;2023-10-31T01:12:23;11.50;99.90
22436;DHT22;11385;50.822;4.324;2023-10-31T01:14:49;11.50;99.90
22436;DHT22;11385;50.822;4.324;2023-10-31T01:17:16;11.60;99.90
22436;DHT22;11385;50.822;4.324;2023-10-31T01:19:43;11.70;99.90
22436;DHT22;11385;50.822;4.324;2023-10-31T01:22:09;11.60;99.90
22436;DHT22;11385;50.822;4.324;2023-10-31T01:24:36;11.60;99.90
22436;DHT22;11385;50.822;4.324;2023-10-31T01:27:03;11.80;99.90
22436;DHT22;11385;50.822;4.324;2023-10-31T01:29:30;11.70;99.90
22436;DHT22;11385;50.822;4.324;2023-10-31T01:31:57;11.80;99.90
22436;DHT22;11385;50.822;4.324;2023-10-31T01:34:24;11.80;99.90
22436;DHT22;11385;50.822;4.324;2023-10-31T01:36:50;11.70;99.90
22436;DHT22;11385;50.822;4.324;2023-10-31T01:39:17;11.70;99.90
22436;DHT22;11385;50.822;4.324;2023-10-31T01:41:44;11.80;99.90
22436;DHT22;11385;50.822;4.324;2023-10-31T01:44:13;11.70;99.90
22436;DHT22;11385;50.822;4.324;2023-10-31T01:46:39;11.70;99.90
22436;DHT22;11385;50.822;4.324;2023-10-31T01:49:06;11.60;99.90
22436;DHT22;11385;50.822;4.324;2023-10-31T01:51:33;11.60;99.90
22436;DHT22;11385;50.822;4.324;2023-10-31T01:54:00;11.70;99.90
22436;DHT22;11385;50.822;4.324;2023-10-31T01:56:26;11.40;99.90
22436;DHT22;11385;50.822;4.324;2023-10-31T01:58:54;11.40;99.90
22436;DHT22;11385;50.822;4.324;2023-10-31T02:01:21;11.40;99.90
22436;DHT22;11385;50.822;4.324;2023-10-31T02:03:48;11.40;99.90
22436;DHT22;11385;50.822;4.324;2023-10-31T02:06:15;11.40;99.90
22436;DHT22;11385;50.822;4.324;2023-10-31T02:08:43;11.30;99.90
22436;DHT22;11385;50.822;4.324;2023-10-31T02:11:10;11.20;99.90
22436;DHT22;11385;50.822;4.324;2023-10-31T02:13:36;11.20;99.90
22436;DHT22;11385;50.822;4.324;2023-10-31T02:16:03;11.30;99.90
22436;DHT22;11385;50.822;4.324;2023-10-31T02:18:30;11.30;99.90
22436;DHT22;11385;50.822;4.324;2023-10-31T02:20:57;11.20;99.90
22436;DHT22;11385;50.822;4.324;2023-10-31T02:23:24;11.20;99.90
22436;DHT22;11385;50.822;4.324;2023-10-31T02:25:51;11.20;99.90
22436;DHT22;11385;50.822;4.324;2023-10-31T02:28:17;11.40;99.90
22436;DHT22;11385;50.822;4.324;2023-10-31T02:30:44;11.40;99.90
22436;DHT22;11385;50.822;4.324;2023-10-31T02:33:11;11.30;99.90
22436;DHT22;11385;50.822;4.324;2023-10-31T02:35:37;11.30;99.90
22436;DHT22;11385;50.822;4.324;2023-10-31T02:38:04;11.30;99.90
22436;DHT22;11385;50.822;4.324;2023-10-31T02:40:30;11.30;99.90
22436;DHT22;11385;50.822;4.324;2023-10-31T02:42:57;11.30;99.90
22436;DHT22;11385;50.822;4.324;2023-10-31T02:45:24;11.30;99.90
22436;DHT22;11385;50.822;4.324;2023-10-31T02:47:51;11.30;99.90
22436;DHT22;11385;50.822;4.324;2023-10-31T02:50:18;11.20;99.90
22436;DHT22;11385;50.822;4.324;2023-10-31T02:52:44;11.20;99.90
22436;DHT22;11385;50.822;4.324;2023-10-31T02:55:11;11.10;99.90
22436;DHT22;11385;50.822;4.324;2023-10-31T02:57:38;11.20;99.90
22436;DHT22;11385;50.822;4.324;2023-10-31T03:00:05;11.20;99.90
22436;DHT22;11385;50.822;4.324;2023-10-31T03:02:32;11.20;99.90
22436;DHT22;11385;50.822;4.324;2023-10-31T03:04:59;11.20;99.90
22436;DHT22;11385;50.822;4.324;2023-10-31T03:07:25;11.30;99.90
22436;DHT22;11385;50.822;4.324;2023-10-31T03:09:52;11.30;99.90
22436;DHT22;11385;50.822;4.324;2023-10-31T03:12:20;11.30;99.90
22436;DHT22;11385;50.822;4.324;2023-10-31T03:14:46;11.20;99.90
22436;DHT22;11385;50.822;4.324;2023-10-31T03:17:13;11.30;99.90
22436;DHT22;11385;50.822;4.324;2023-10-31T03:19:40;11.40;99.90
22436;DHT22;11385;50.822;4.324;2023-10-31T03:22:06;11.40;99.90
22436;DHT22;11385;50.822;4.324;2023-10-31T03:24:33;11.40;99.90
22436;DHT22;11385;50.822;4.324;2023-10-31T03:26:59;11.30;99.90
22436;DHT22;11385;50.822;4.324;2023-10-31T03:29:26;11.20;99.90
22436;DHT22;11385;50.822;4.324;2023-10-31T03:31:53;11.10;99.90
22436;DHT22;11385;50.822;4.324;2023-10-31T03:34:19;11.20;99.90
22436;DHT22;11385;50.822;4.324;2023-10-31T03:36:46;11.20;99.90
22436;DHT22;11385;50.822;4.324;2023-10-31T03:39:12;11.10;99.90
22436;DHT22;11385;50.822;4.324;2023-10-31T03:41:39;11.00;99.90
22436;DHT22;11385;50.822;4.324;2023-10-31T03:44:05;11.10;99.90
22436;DHT22;11385;50.822;4.324;2023-10-31T03:46:32;11.00;99.90
22436;DHT22;11385;50.822;4.324;2023-10-31T03:48:59;11.00;99.90
22436;DHT22;11385;50.822;4.324;2023-10-31T03:51:26;11.00;99.90
22436;DHT22;11385;50.822;4.324;2023-10-31T03:53:52;11.10;99.90
22436;DHT22;11385;50.822;4.324;2023-10-31T03:56:19;11.20;99.90
22436;DHT22;11385;50.822;4.324;2023-10-31T03:58:45;11.20;99.90
22436;DHT22;11385;50.822;4.324;2023-10-31T04:01:12;11.30;99.90
22436;DHT22;11385;50.822;4.324;2023-10-31T04:03:39;11.20;99.90
22436;DHT22;11385;50.822;4.324;2023-10-31T04:06:05;11.30;99.90
22436;DHT22;11385;50.822;4.324;2023-10-31T04:08:32;11.30;99.90
22436;DHT22;11385;50.822;4.324;2023-10-31T04:10:59;11.30;99.90
22436;DHT22;11385;50.822;4.324;2023-10-31T04:13:25;11.30;99.90
22436;DHT22;11385;50.822;4.324;2023-10-31T04:15:52;11.10;99.90
22436;DHT22;11385;50.822;4.324;2023-10-31T04:18:19;11.30;99.90
22436;DHT22;11385;50.822;4.324;2023-10-31T04:20:46;11.20;99.90
22436;DHT22;11385;50.822;4.324;2023-10-31T04:23:12;11.20;99.90
22436;DHT22;11385;50.822;4.324;2023-10-31T04:25:39;11.20;99.90
22436;DHT22;11385;50.822;4.324;2023-10-31T04:28:05;11.30;99.90
22436;DHT22;11385;50.822;4.324;2023-10-31T04:30:33;11.20;99.90
22436;DHT22;11385;50.822;4.324;2023-10-31T04:32:59;11.20;99.90
22436;DHT22;11385;50.822;4.324;2023-10-31T04:35:26;11.10;99.90
22436;DHT22;11385;50.822;4.324;2023-10-31T04:37:53;11.10;99.90
22436;DHT22;11385;50.822;4.324;2023-10-31T04:40:19;11.00;99.90
22436;DHT22;11385;50.822;4.324;2023-10-31T04:42:46;11.00;99.90
22436;DHT22;11385;50.822;4.324;2023-10-31T04:45:13;11.00;99.90
22436;DHT22;11385;50.822;4.324;2023-10-31T04:47:41;11.10;99.90
22436;DHT22;11385;50.822;4.324;2023-10-31T04:50:08;11.10;99.90
22436;DHT22;11385;50.822;4.324;2023-10-31T04:52:35;11.20;99.90
22436;DHT22;11385;50.822;4.324;2023-10-31T04:55:01;11.20;99.90
22436;DHT22;11385;50.822;4.324;2023-10-31T04:57:28;11.10;99.90
22436;DHT22;11385;50.822;4.324;2023-10-31T04:59:55;11.00;99.90
22436;DHT22;11385;50.822;4.324;2023-10-31T05:02:23;11.10;99.90
22436;DHT22;11385;50.822;4.324;2023-10-31T05:04:50;11.20;99.90
22436;DHT22;11385;50.822;4.324;2023-10-31T05:07:18;11.30;99.90
22436;DHT22;11385;50.822;4.324;2023-10-31T05:09:45;11.20;99.90
22436;DHT22;11385;50.822;4.324;2023-10-31T05:12:12;11.20;99.90
22436;DHT22;11385;50.822;4.324;2023-10-31T05:14:40;11.30;99.90
22436;DHT22;11385;50.822;4.324;2023-10-31T05:17:07;11.20;99.90
22436;DHT22;11385;50.822;4.324;2023-10-31T05:19:33;11.30;99.90
22436;DHT22;11385;50.822;4.324;2023-10-31T05:22:00;11.30;99.90
22436;DHT22;11385;50.822;4.324;2023-10-31T05:24:27;11.30;99.90
22436;DHT22;11385;50.822;4.324;2023-10-31T05:26:53;11.40;99.90
22436;DHT22;11385;50.822;4.324;2023-10-31T05:29:20;11.20;99.90
22436;DHT22;11385;50.822;4.324;2023-10-31T05:31:46;11.30;99.90
22436;DHT22;11385;50.822;4.324;2023-10-31T05:34:13;11.30;99.90
22436;DHT22;11385;50.822;4.324;2023-10-31T05:36:41;11.40;99.90
22436;DHT22;11385;50.822;4.324;2023-10-31T05:39:08;11.30;99.90
22436;DHT22;11385;50.822;4.324;2023-10-31T05:41:35;11.30;99.90
22436;DHT22;11385;50.822;4.324;2023-10-31T05:44:02;11.40;99.90
22436;DHT22;11385;50.822;4.324;2023-10-31T05:46:28;11.40;99.90
22436;DHT22;11385;50.822;4.324;2023-10-31T05:48:55;11.30;99.90
22436;DHT22;11385;50.822;4.324;2023-10-31T05:51:22;11.40;99.90
22436;DHT22;11385;50.822;4.324;2023-10-31T05:53:51;11.50;99.90
22436;DHT22;11385;50.822;4.324;2023-10-31T05:56:18;11.60;99.90
22436;DHT22;11385;50.822;4.324;2023-10-31T05:58:44;11.70;99.90
22436;DHT22;11385;50.822;4.324;2023-10-31T06:01:11;11.60;99.90
22436;DHT22;11385;50.822;4.324;2023-10-31T06:03:41;11.50;99.90
22436;DHT22;11385;50.822;4.324;2023-10-31T06:06:09;11.50;99.90
22436;DHT22;11385;50.822;4.324;2023-10-31T06:08:35;11.30;99.90
22436;DHT22;11385;50.822;4.324;2023-10-31T06:11:03;11.30;99.90
22436;DHT22;11385;50.822;4.324;2023-10-31T06:13:30;11.40;99.90
22436;DHT22;11385;50.822;4.324;2023-10-31T06:15:57;11.30;99.90
22436;DHT22;11385;50.822;4.324;2023-10-31T06:18:25;11.40;99.90
22436;DHT22;11385;50.822;4.324;2023-10-31T06:20:53;11.40;99.90
22436;DHT22;11385;50.822;4.324;2023-10-31T06:23:19;11.50;99.90
22436;DHT22;11385;50.822;4.324;2023-10-31T06:25:46;11.50;99.90
22436;DHT22;11385;50.822;4.324;2023-10-31T06:28:12;11.50;99.90
22436;DHT22;11385;50.822;4.324;2023-10-31T06:30:39;11.40;99.90
22436;DHT22;11385;50.822;4.324;2023-10-31T06:33:06;11.50;99.90
22436;DHT22;11385;50.822;4.324;2023-10-31T06:35:34;11.40;99.90
22436;DHT22;11385;50.822;4.324;2023-10-31T06:38:01;11.40;99.90
22436;DHT22;11385;50.822;4.324;2023-10-31T06:40:28;11.30;99.90
22436;DHT22;11385;50.822;4.324;2023-10-31T06:42:55;11.30;99.90
22436;DHT22;11385;50.822;4.324;2023-10-31T06:45:21;11.30;99.90
22436;DHT22;11385;50.822;4.324;2023-10-31T06:47:48;11.30;99.90
22436;DHT22;11385;50.822;4.324;2023-10-31T06:50:15;11.20;99.90
22436;DHT22;11385;50.822;4.324;2023-10-31T06:52:41;11.30;99.90
22436;DHT22;11385;50.822;4.324;2023-10-31T06:55:08;11.40;99.90
22436;DHT22;11385;50.822;4.324;2023-10-31T06:57:35;11.50;99.90
22436;DHT22;11385;50.822;4.324;2023-10-31T07:00:02;11.60;99.90
22436;DHT22;11385;50.822;4.324;2023-10-31T07:02:29;11.60;99.90
22436;DHT22;11385;50.822;4.324;2023-10-31T07:04:56;11.60;99.90
22436;DHT22;11385;50.822;4.324;2023-10-31T07:07:22;11.70;99.90
22436;DHT22;11385;50.822;4.324;2023-10-31T07:09:49;11.70;99.90
22436;DHT22;11385;50.822;4.324;2023-10-31T07:12:15;11.80;99.90
22436;DHT22;11385;50.822;4.324;2023-10-31T07:14:42;11.80;99.90
22436;DHT22;11385;50.822;4.324;2023-10-31T07:17:09;11.90;99.90
22436;DHT22;11385;50.822;4.324;2023-10-31T07:19:35;11.80;99.90
22436;DHT22;11385;50.822;4.324;2023-10-31T07:22:02;11.80;99.90
22436;DHT22;11385;50.822;4.324;2023-10-31T07:24:29;11.80;99.90
22436;DHT22;11385;50.822;4.324;2023-10-31T07:26:55;11.70;99.90
22436;DHT22;11385;50.822;4.324;2023-10-31T07:29:22;11.80;99.90
22436;DHT22;11385;50.822;4.324;2023-10-31T07:31:49;11.70;99.90
22436;DHT22;11385;50.822;4.324;2023-10-31T07:34:15;11.40;99.90
22436;DHT22;11385;50.822;4.324;2023-10-31T07:36:42;11.40;99.90
22436;DHT22;11385;50.822;4.324;2023-10-31T07:39:09;11.40;99.90
22436;DHT22;11385;50.822;4.324;2023-10-31T07:41:35;11.50;99.90
22436;DHT22;11385;50.822;4.324;2023-10-31T07:44:02;11.40;99.90
22436;DHT22;11385;50.822;4.324;2023-10-31T07:46:29;11.50;99.90
22436;DHT22;11385;50.822;4.324;2023-10-31T07:48:55;11.60;99.90
22436;DHT22;11385;50.822;4.324;2023-10-31T07:51:23;11.60;99.90
22436;DHT22;11385;50.822;4.324;2023-10-31T07:53:50;11.60;99.90
22436;DHT22;11385;50.822;4.324;2023-10-31T07:58:47;11.50;99.90
22436;DHT22;11385;50.822;4.324;2023-10-31T08:01:14;11.60;99.90
22436;DHT22;11385;50.822;4.324;2023-10-31T08:03:40;11.60;99.90
22436;DHT22;11385;50.822;4.324;2023-10-31T08:06:07;11.60;99.90
22436;DHT22;11385;50.822;4.324;2023-10-31T08:08:34;11.70;99.90
22436;DHT22;11385;50.822;4.324;2023-10-31T08:11:00;11.60;99.90
22436;DHT22;11385;50.822;4.324;2023-10-31T08:13:27;11.70;99.90
22436;DHT22;11385;50.822;4.324;2023-10-31T08:15:53;11.60;99.90
22436;DHT22;11385;50.822;4.324;2023-10-31T08:18:22;11.60;99.90
22436;DHT22;11385;50.822;4.324;2023-10-31T08:20:50;11.60;99.90
22436;DHT22;11385;50.822;4.324;2023-10-31T08:23:17;11.50;99.90
22436;DHT22;11385;50.822;4.324;2023-10-31T08:25:43;11.40;99.90
22436;DHT22;11385;50.822;4.324;2023-10-31T08:28:11;11.40;99.90
22436;DHT22;11385;50.822;4.324;2023-10-31T08:30:37;11.60;99.90
22436;DHT22;11385;50.822;4.324;2023-10-31T08:33:05;11.80;99.90
22436;DHT22;11385;50.822;4.324;2023-10-31T08:35:31;11.80;99.90
22436;DHT22;11385;50.822;4.324;2023-10-31T08:37:58;11.50;99.90
22436;DHT22;11385;50.822;4.324;2023-10-31T08:40:25;11.60;99.90
22436;DHT22;11385;50.822;4.324;2023-10-31T08:42:52;11.40;99.90
22436;DHT22;11385;50.822;4.324;2023-10-31T08:45:19;11.50;99.90
22436;DHT22;11385;50.822;4.324;2023-10-31T08:47:46;11.60;99.90
22436;DHT22;11385;50.822;4.324;2023-10-31T08:50:12;11.90;99.90
22436;DHT22;11385;50.822;4.324;2023-10-31T08:52:40;12.00;99.90
22436;DHT22;11385;50.822;4.324;2023-10-31T08:55:06;12.20;99.90
22436;DHT22;11385;50.822;4.324;2023-10-31T08:57:33;12.30;99.90
22436;DHT22;11385;50.822;4.324;2023-10-31T09:00:00;12.40;99.90
22436;DHT22;11385;50.822;4.324;2023-10-31T09:02:26;12.50;99.90
22436;DHT22;11385;50.822;4.324;2023-10-31T09:04:53;12.60;99.90
22436;DHT22;11385;50.822;4.324;2023-10-31T09:07:20;12.60;99.90
22436;DHT22;11385;50.822;4.324;2023-10-31T09:09:46;12.60;99.90
22436;DHT22;11385;50.822;4.324;2023-10-31T09:12:13;12.60;99.90
22436;DHT22;11385;50.822;4.324;2023-10-31T09:14:39;12.70;99.90
22436;DHT22;11385;50.822;4.324;2023-10-31T09:17:07;12.50;99.90
22436;DHT22;11385;50.822;4.324;2023-10-31T09:19:34;12.40;99.90
22436;DHT22;11385;50.822;4.324;2023-10-31T09:22:01;12.30;99.90
22436;DHT22;11385;50.822;4.324;2023-10-31T09:24:27;12.20;99.90
22436;DHT22;11385;50.822;4.324;2023-10-31T09:26:54;12.20;99.90
22436;DHT22;11385;50.822;4.324;2023-10-31T09:29:21;12.30;99.90
22436;DHT22;11385;50.822;4.324;2023-10-31T09:31:47;12.20;99.90
22436;DHT22;11385;50.822;4.324;2023-10-31T09:34:14;12.20;99.90
22436;DHT22;11385;50.822;4.324;2023-10-31T09:36:42;12.20;99.90
22436;DHT22;11385;50.822;4.324;2023-10-31T09:39:09;12.10;99.90
22436;DHT22;11385;50.822;4.324;2023-10-31T09:41:36;12.00;99.90
22436;DHT22;11385;50.822;4.324;2023-10-31T09:44:03;12.00;99.90
22436;DHT22;11385;50.822;4.324;2023-10-31T09:46:30;12.00;99.90
22436;DHT22;11385;50.822;4.324;2023-10-31T09:48:57;12.20;99.90
22436;DHT22;11385;50.822;4.324;2023-10-31T09:51:24;12.30;99.90
22436;DHT22;11385;50.822;4.324;2023-10-31T09:53:54;12.60;99.90
22436;DHT22;11385;50.822;4.324;2023-10-31T09:56:22;12.90;99.90
22436;DHT22;11385;50.822;4.324;2023-10-31T09:58:48;12.80;99.90
22436;DHT22;11385;50.822;4.324;2023-10-31T10:01:17;13.00;99.90
22436;DHT22;11385;50.822;4.324;2023-10-31T10:03:43;12.90;99.90
22436;DHT22;11385;50.822;4.324;2023-10-31T10:06:10;12.50;99.90
22436;DHT22;11385;50.822;4.324;2023-10-31T10:08:38;12.50;99.90
22436;DHT22;11385;50.822;4.324;2023-10-31T10:11:05;12.80;99.90
22436;DHT22;11385;50.822;4.324;2023-10-31T10:13:32;12.90;99.90
22436;DHT22;11385;50.822;4.324;2023-10-31T10:16:00;12.80;99.90
22436;DHT22;11385;50.822;4.324;2023-10-31T10:18:28;13.00;99.90
22436;DHT22;11385;50.822;4.324;2023-10-31T10:21:00;12.90;99.90
22436;DHT22;11385;50.822;4.324;2023-10-31T10:23:30;13.00;99.90
22436;DHT22;11385;50.822;4.324;2023-10-31T10:25:58;12.90;99.90
22436;DHT22;11385;50.822;4.324;2023-10-31T10:28:26;12.80;99.90
22436;DHT22;11385;50.822;4.324;2023-10-31T10:30:55;12.80;99.90
22436;DHT22;11385;50.822;4.324;2023-10-31T10:33:22;12.90;99.90
22436;DHT22;11385;50.822;4.324;2023-10-31T10:35:49;12.70;99.90
22436;DHT22;11385;50.822;4.324;2023-10-31T10:38:17;12.60;99.90
22436;DHT22;11385;50.822;4.324;2023-10-31T10:40:46;12.60;99.90
22436;DHT22;11385;50.822;4.324;2023-10-31T10:43:20;12.80;99.90
22436;DHT22;11385;50.822;4.324;2023-10-31T10:45:54;12.90;99.90
22436;DHT22;11385;50.822;4.324;2023-10-31T10:48:23;12.80;99.90
22436;DHT22;11385;50.822;4.324;2023-10-31T10:50:57;12.80;99.90
22436;DHT22;11385;50.822;4.324;2023-10-31T10:53:29;12.90;99.90
22436;DHT22;11385;50.822;4.324;2023-10-31T10:56:02;12.70;99.90
22436;DHT22;11385;50.822;4.324;2023-10-31T10:58:34;12.60;99.90
22436;DHT22;11385;50.822;4.324;2023-10-31T11:01:02;12.50;99.90
22436;DHT22;11385;50.822;4.324;2023-10-31T11:03:30;12.30;99.90
22436;DHT22;11385;50.822;4.324;2023-10-31T11:06:01;12.30;99.90
22436;DHT22;11385;50.822;4.324;2023-10-31T11:08:32;12.40;99.90
22436;DHT22;11385;50.822;4.324;2023-10-31T11:11:01;12.50;99.90
22436;DHT22;11385;50.822;4.324;2023-10-31T11:13:28;12.50;99.90
22436;DHT22;11385;50.822;4.324;2023-10-31T11:15:57;12.70;99.90
22436;DHT22;11385;50.822;4.324;2023-10-31T11:18:26;12.70;99.90
22436;DHT22;11385;50.822;4.324;2023-10-31T11:20:53;12.50;99.90
22436;DHT22;11385;50.822;4.324;2023-10-31T11:23:20;12.50;99.90
22436;DHT22;11385;50.822;4.324;2023-10-31T11:25:49;12.60;99.90
22436;DHT22;11385;50.822;4.324;2023-10-31T11:28:19;12.70;99.90
22436;DHT22;11385;50.822;4.324;2023-10-31T11:30:48;12.80;99.90
22436;DHT22;11385;50.822;4.324;2023-10-31T11:33:19;12.80;99.90
22436;DHT22;11385;50.822;4.324;2023-10-31T11:35:51;12.90;99.90
22436;DHT22;11385;50.822;4.324;2023-10-31T11:38:28;13.10;99.90
22436;DHT22;11385;50.822;4.324;2023-10-31T11:41:00;12.90;99.90
22436;DHT22;11385;50.822;4.324;2023-10-31T11:43:51;12.80;99.90
22436;DHT22;11385;50.822;4.324;2023-10-31T11:46:22;12.60;99.90
22436;DHT22;11385;50.822;4.324;2023-10-31T11:48:51;12.70;99.90
22436;DHT22;11385;50.822;4.324;2023-10-31T11:51:19;12.70;99.90
22436;DHT22;11385;50.822;4.324;2023-10-31T11:53:47;12.90;99.90
22436;DHT22;11385;50.822;4.324;2023-10-31T11:56:16;12.80;99.90
22436;DHT22;11385;50.822;4.324;2023-10-31T11:58:43;12.80;99.90
22436;DHT22;11385;50.822;4.324;2023-10-31T12:01:10;12.80;99.90
22436;DHT22;11385;50.822;4.324;2023-10-31T12:03:39;12.80;99.90
22436;DHT22;11385;50.822;4.324;2023-10-31T12:06:07;12.70;99.90
22436;DHT22;11385;50.822;4.324;2023-10-31T12:08:37;12.60;99.90
22436;DHT22;11385;50.822;4.324;2023-10-31T12:11:14;12.50;99.90
22436;DHT22;11385;50.822;4.324;2023-10-31T12:16:16;12.40;99.90
22436;DHT22;11385;50.822;4.324;2023-10-31T12:18:44;12.40;99.90
22436;DHT22;11385;50.822;4.324;2023-10-31T12:21:11;12.20;99.90
22436;DHT22;11385;50.822;4.324;2023-10-31T12:23:39;12.20;99.90
22436;DHT22;11385;50.822;4.324;2023-10-31T12:26:06;12.30;99.90
22436;DHT22;11385;50.822;4.324;2023-10-31T12:28:33;12.20;99.90
22436;DHT22;11385;50.822;4.324;2023-10-31T12:31:02;12.20;99.90
22436;DHT22;11385;50.822;4.324;2023-10-31T12:33:29;12.20;99.90
22436;DHT22;11385;50.822;4.324;2023-10-31T12:35:58;12.30;99.90
22436;DHT22;11385;50.822;4.324;2023-10-31T12:38:25;12.30;99.90
22436;DHT22;11385;50.822;4.324;2023-10-31T12:40:53;12.40;99.90
22436;DHT22;11385;50.822;4.324;2023-10-31T12:43:20;12.40;99.90
22436;DHT22;11385;50.822;4.324;2023-10-31T12:45:47;12.50;99.90
22436;DHT22;11385;50.822;4.324;2023-10-31T12:48:14;12.60;99.90
22436;DHT22;11385;50.822;4.324;2023-10-31T12:50:41;12.70;99.90
22436;DHT22;11385;50.822;4.324;2023-10-31T12:53:09;12.70;99.90
22436;DHT22;11385;50.822;4.324;2023-10-31T12:55:41;12.60;99.90
22436;DHT22;11385;50.822;4.324;2023-10-31T12:58:08;12.70;99.90
22436;DHT22;11385;50.822;4.324;2023-10-31T13:00:37;12.70;99.90
22436;DHT22;11385;50.822;4.324;2023-10-31T13:03:05;12.70;99.90
22436;DHT22;11385;50.822;4.324;2023-10-31T13:05:32;12.70;99.90
22436;DHT22;11385;50.822;4.324;2023-10-31T13:08:00;12.40;99.90
22436;DHT22;11385;50.822;4.324;2023-10-31T13:10:29;12.50;99.90
22436;DHT22;11385;50.822;4.324;2023-10-31T13:12:57;12.30;99.90
22436;DHT22;11385;50.822;4.324;2023-10-31T13:15:24;12.20;99.90
22436;DHT22;11385;50.822;4.324;2023-10-31T13:17:51;12.20;99.90
22436;DHT22;11385;50.822;4.324;2023-10-31T13:20:19;12.20;99.90
22436;DHT22;11385;50.822;4.324;2023-10-31T13:22:47;12.40;99.90
22436;DHT22;11385;50.822;4.324;2023-10-31T13:25:14;12.50;99.90
22436;DHT22;11385;50.822;4.324;2023-10-31T13:27:43;12.50;99.90
22436;DHT22;11385;50.822;4.324;2023-10-31T13:30:11;12.50;99.90
22436;DHT22;11385;50.822;4.324;2023-10-31T13:32:38;12.60;99.90
22436;DHT22;11385;50.822;4.324;2023-10-31T13:35:05;12.60;99.90
22436;DHT22;11385;50.822;4.324;2023-10-31T13:37:32;12.60;99.90
22436;DHT22;11385;50.822;4.324;2023-10-31T13:40:01;12.70;99.90
22436;DHT22;11385;50.822;4.324;2023-10-31T13:42:28;12.70;99.90
22436;DHT22;11385;50.822;4.324;2023-10-31T13:44:54;12.80;99.90
22436;DHT22;11385;50.822;4.324;2023-10-31T13:47:21;12.90;99.90
22436;DHT22;11385;50.822;4.324;2023-10-31T13:49:48;12.90;99.90
22436;DHT22;11385;50.822;4.324;2023-10-31T13:52:14;13.00;99.90
22436;DHT22;11385;50.822;4.324;2023-10-31T13:54:41;13.20;99.90
22436;DHT22;11385;50.822;4.324;2023-10-31T13:57:09;13.20;99.90
22436;DHT22;11385;50.822;4.324;2023-10-31T13:59:36;13.10;99.90
22436;DHT22;11385;50.822;4.324;2023-10-31T14:02:03;13.40;99.90
22436;DHT22;11385;50.822;4.324;2023-10-31T14:04:29;13.50;99.90
22436;DHT22;11385;50.822;4.324;2023-10-31T14:06:57;13.40;99.90
22436;DHT22;11385;50.822;4.324;2023-10-31T14:09:23;13.50;99.90
22436;DHT22;11385;50.822;4.324;2023-10-31T14:11:50;13.60;99.90
22436;DHT22;11385;50.822;4.324;2023-10-31T14:14:17;13.50;99.90
22436;DHT22;11385;50.822;4.324;2023-10-31T14:16:44;13.60;99.90
22436;DHT22;11385;50.822;4.324;2023-10-31T14:19:11;13.60;99.90
22436;DHT22;11385;50.822;4.324;2023-10-31T14:21:39;13.60;99.90
22436;DHT22;11385;50.822;4.324;2023-10-31T14:27:08;13.90;99.90
22436;DHT22;11385;50.822;4.324;2023-10-31T14:29:36;14.10;99.90
22436;DHT22;11385;50.822;4.324;2023-10-31T14:32:07;14.00;99.90
22436;DHT22;11385;50.822;4.324;2023-10-31T14:34:34;14.00;99.90
22436;DHT22;11385;50.822;4.324;2023-10-31T14:37:01;14.10;99.90
22436;DHT22;11385;50.822;4.324;2023-10-31T14:39:29;13.90;99.90
22436;DHT22;11385;50.822;4.324;2023-10-31T14:41:56;14.00;99.90
22436;DHT22;11385;50.822;4.324;2023-10-31T14:44:23;14.00;99.90
22436;DHT22;11385;50.822;4.324;2023-10-31T14:46:49;14.00;99.90
22436;DHT22;11385;50.822;4.324;2023-10-31T14:49:16;13.90;99.90
22436;DHT22;11385;50.822;4.324;2023-10-31T14:51:42;13.80;99.90
22436;DHT22;11385;50.822;4.324;2023-10-31T14:54:09;13.80;99.90
22436;DHT22;11385;50.822;4.324;2023-10-31T14:56:36;13.60;99.90
22436;DHT22;11385;50.822;4.324;2023-10-31T14:59:03;13.60;99.90
22436;DHT22;11385;50.822;4.324;2023-10-31T15:01:30;13.70;99.90
22436;DHT22;11385;50.822;4.324;2023-10-31T15:03:57;13.80;99.90
22436;DHT22;11385;50.822;4.324;2023-10-31T15:06:24;13.80;99.90
22436;DHT22;11385;50.822;4.324;2023-10-31T15:08:51;13.80;99.90
22436;DHT22;11385;50.822;4.324;2023-10-31T15:11:17;13.80;99.90
22436;DHT22;11385;50.822;4.324;2023-10-31T15:13:44;13.70;99.90
22436;DHT22;11385;50.822;4.324;2023-10-31T15:16:11;13.70;99.90
22436;DHT22;11385;50.822;4.324;2023-10-31T15:18:37;13.70;99.90
22436;DHT22;11385;50.822;4.324;2023-10-31T15:21:04;13.80;99.90
22436;DHT22;11385;50.822;4.324;2023-10-31T15:23:31;13.80;99.90
22436;DHT22;11385;50.822;4.324;2023-10-31T15:25:58;13.90;99.90
22436;DHT22;11385;50.822;4.324;2023-10-31T15:28:24;14.00;99.90
22436;DHT22;11385;50.822;4.324;2023-10-31T15:30:51;13.90;99.90
22436;DHT22;11385;50.822;4.324;2023-10-31T15:33:18;13.70;99.90
22436;DHT22;11385;50.822;4.324;2023-10-31T15:35:45;13.70;99.90
22436;DHT22;11385;50.822;4.324;2023-10-31T15:38:11;13.70;99.90